createdAt,value
2022-08-19T00:00:53.239Z,50.902401
2022-08-19T00:01:53.788Z,50.902382
2022-08-19T00:02:53.291Z,50.902378
2022-08-19T00:03:53.228Z,50.902386
2022-08-19T00:04:53.364Z,50.902386
2022-08-19T00:05:53.210Z,50.902382
2022-08-19T00:06:53.200Z,50.902340
2022-08-19T00:07:53.227Z,50.902344
2022-08-19T00:08:53.196Z,50.902363
2022-08-19T00:09:53.173Z,50.902393
2022-08-19T00:10:53.174Z,50.902401
2022-08-19T00:11:53.155Z,50.902386
2022-08-19T00:12:54.188Z,50.902344
2022-08-19T00:13:53.149Z,50.902386
2022-08-19T00:14:53.159Z,50.902344
2022-08-19T00:15:53.154Z,50.902397
2022-08-19T00:16:53.131Z,50.902401
2022-08-19T00:17:53.148Z,50.902382
2022-08-19T00:18:53.110Z,50.902390
2022-08-19T00:19:53.106Z,50.902393
2022-08-19T00:20:53.087Z,50.902401
2022-08-19T00:21:53.095Z,50.902443
2022-08-19T00:22:53.231Z,50.902416
2022-08-19T00:23:53.079Z,50.902409
2022-08-19T00:24:53.066Z,50.902409
2022-08-19T00:25:53.056Z,50.902397
2022-08-19T00:26:53.048Z,50.902393
2022-08-19T00:27:53.063Z,50.902390
2022-08-19T00:28:53.034Z,50.902405
2022-08-19T00:29:53.043Z,50.902428
2022-08-19T00:30:53.011Z,50.902431
2022-08-19T00:31:53.013Z,50.902416
2022-08-19T00:32:53.106Z,50.902412
2022-08-19T00:33:52.998Z,50.902439
2022-08-19T00:34:52.982Z,50.902443
2022-08-19T00:35:56.128Z,50.902435
2022-08-19T00:36:52.969Z,50.902416
2022-08-19T00:37:52.980Z,50.902405
2022-08-19T00:38:52.949Z,50.902416
2022-08-19T00:39:53.014Z,50.902439
2022-08-19T00:40:52.945Z,50.902458
2022-08-19T00:41:52.922Z,50.902451
2022-08-19T00:42:53.094Z,50.902458
2022-08-19T00:43:52.918Z,50.902470
2022-08-19T00:44:52.905Z,50.902431
2022-08-19T00:45:52.899Z,50.902435
2022-08-19T00:46:57.944Z,50.902416
2022-08-19T00:47:53.911Z,50.902420
2022-08-19T00:48:52.875Z,50.902435
2022-08-19T00:49:52.856Z,50.902447
2022-08-19T00:50:52.852Z,50.902439
2022-08-19T00:51:52.850Z,50.902424
2022-08-19T00:52:52.987Z,50.902420
2022-08-19T00:53:52.833Z,50.902435
2022-08-19T00:54:52.967Z,50.902435
2022-08-19T00:55:52.815Z,50.902435
2022-08-19T00:56:52.814Z,50.902439
2022-08-19T00:57:52.826Z,50.902462
2022-08-19T00:58:52.794Z,50.902493
2022-08-19T01:00:00.365Z,50.902435
2022-08-19T01:00:53.772Z,50.902431
2022-08-19T01:01:52.843Z,50.902431
2022-08-19T01:02:52.926Z,50.902447
2022-08-19T01:03:57.893Z,50.902447
2022-08-19T01:04:53.755Z,50.902447
2022-08-19T01:05:52.737Z,50.902428
2022-08-19T01:06:52.739Z,50.902443
2022-08-19T01:07:52.748Z,50.902481
2022-08-19T01:08:52.720Z,50.902515
2022-08-19T01:09:52.713Z,50.902443
2022-08-19T01:10:52.698Z,50.902451
2022-08-19T01:11:52.698Z,50.902462
2022-08-19T01:12:52.842Z,50.902431
2022-08-19T01:13:52.672Z,50.902405
2022-08-19T01:14:52.672Z,50.902416
2022-08-19T01:15:52.671Z,50.902416
2022-08-19T01:16:52.663Z,50.902435
2022-08-19T01:17:52.676Z,50.902447
2022-08-19T01:18:52.644Z,50.902443
2022-08-19T01:19:52.630Z,50.902443
2022-08-19T01:20:52.621Z,50.902451
2022-08-19T01:21:52.619Z,50.902443
2022-08-19T01:22:52.715Z,50.902431
2022-08-19T01:23:52.600Z,50.902458
2022-08-19T01:24:52.597Z,50.902428
2022-08-19T01:25:52.593Z,50.902447
2022-08-19T01:26:52.576Z,50.902431
2022-08-19T01:27:53.499Z,50.902435
2022-08-19T01:28:52.569Z,50.902458
2022-08-19T01:29:52.554Z,50.902451
2022-08-19T01:30:52.547Z,50.902439
2022-08-19T01:31:52.545Z,50.902428
2022-08-19T01:32:52.683Z,50.902454
2022-08-19T01:33:52.527Z,50.902454
2022-08-19T01:34:52.526Z,50.902439
2022-08-19T01:35:52.510Z,50.902458
2022-08-19T01:36:52.507Z,50.902451
2022-08-19T01:37:52.519Z,50.902428
2022-08-19T01:38:52.485Z,50.902431
2022-08-19T01:39:52.508Z,50.902443
2022-08-19T01:40:52.467Z,50.902428
2022-08-19T01:41:52.463Z,50.902412
2022-08-19T01:42:52.668Z,50.902443
2022-08-19T01:44:12.381Z,50.902447
2022-08-19T01:44:53.440Z,50.902431
2022-08-19T01:46:26.827Z,50.902443
2022-08-19T01:46:52.418Z,50.902420
2022-08-19T01:48:01.493Z,50.902409
2022-08-19T01:48:53.404Z,50.902412
2022-08-19T01:49:52.397Z,50.902405
2022-08-19T01:50:52.384Z,50.902397
2022-08-19T01:51:52.382Z,50.902374
2022-08-19T01:53:02.362Z,50.902390
2022-08-19T01:53:53.364Z,50.902351
2022-08-19T01:54:52.353Z,50.902416
2022-08-19T01:55:52.356Z,50.902424
2022-08-19T01:56:52.345Z,50.902458
2022-08-19T01:57:52.363Z,50.902409
2022-08-19T01:58:52.321Z,50.902390
2022-08-19T01:59:52.322Z,50.902424
2022-08-19T02:00:52.309Z,50.902416
2022-08-19T02:01:52.410Z,50.902493
2022-08-19T02:02:52.497Z,50.902477
2022-08-19T02:03:52.301Z,50.902431
2022-08-19T02:04:52.276Z,50.902405
2022-08-19T02:05:52.282Z,50.902378
2022-08-19T02:06:52.263Z,50.902393
2022-08-19T02:07:52.284Z,50.902359
2022-08-19T02:08:52.257Z,50.902420
2022-08-19T02:09:53.244Z,50.902409
2022-08-19T02:10:52.237Z,50.902401
2022-08-19T02:11:52.244Z,50.902481
2022-08-19T02:12:52.384Z,50.902485
2022-08-19T02:13:52.216Z,50.902489
2022-08-19T02:14:52.202Z,50.902397
2022-08-19T02:15:52.217Z,50.902454
2022-08-19T02:16:52.185Z,50.902390
2022-08-19T02:17:52.209Z,50.902439
2022-08-19T02:18:52.173Z,50.902443
2022-08-19T02:19:52.168Z,50.902489
2022-08-19T02:20:52.160Z,50.902584
2022-08-19T02:21:52.151Z,50.902493
2022-08-19T02:22:52.243Z,50.902534
2022-08-19T02:23:52.135Z,50.902477
2022-08-19T02:24:52.127Z,50.902519
2022-08-19T02:25:52.143Z,50.902592
2022-08-19T02:26:52.108Z,50.902580
2022-08-19T02:27:52.133Z,50.902561
2022-08-19T02:28:52.094Z,50.902565
2022-08-19T02:29:52.092Z,50.902531
2022-08-19T02:30:52.083Z,50.902428
2022-08-19T02:31:52.072Z,50.902401
2022-08-19T02:32:52.065Z,50.902374
2022-08-19T02:33:52.084Z,50.902405
2022-08-19T02:34:52.050Z,50.902443
2022-08-19T02:35:52.031Z,50.902443
2022-08-19T02:36:53.032Z,50.902420
2022-08-19T02:37:52.023Z,50.902435
2022-08-19T02:38:54.190Z,50.902416
2022-08-19T02:39:52.039Z,50.902420
2022-08-19T02:40:52.009Z,50.902416
2022-08-19T02:41:51.996Z,50.902420
2022-08-19T02:42:52.088Z,50.902462
2022-08-19T02:44:28.895Z,50.902412
2022-08-19T02:44:52.968Z,50.902451
2022-08-19T02:45:51.967Z,50.902435
2022-08-19T02:46:52.732Z,50.902409
2022-08-19T02:47:51.962Z,50.902424
2022-08-19T02:48:51.970Z,50.902443
2022-08-19T02:49:51.940Z,50.902447
2022-08-19T02:50:53.659Z,50.902439
2022-08-19T02:51:51.922Z,50.902401
2022-08-19T02:52:52.141Z,50.902409
2022-08-19T02:53:51.932Z,50.902397
2022-08-19T02:54:51.912Z,50.902393
2022-08-19T02:55:51.914Z,50.902412
2022-08-19T02:56:51.874Z,50.902397
2022-08-19T02:57:52.904Z,50.902416
2022-08-19T02:58:51.867Z,50.902431
2022-08-19T02:59:51.866Z,50.902409
2022-08-19T03:00:51.946Z,50.902412
2022-08-19T03:01:51.846Z,50.902416
2022-08-19T03:02:51.876Z,50.902393
2022-08-19T03:03:51.863Z,50.902409
2022-08-19T03:04:51.835Z,50.902397
2022-08-19T03:05:56.587Z,50.902405
2022-08-19T03:06:52.805Z,50.902412
2022-08-19T03:07:51.805Z,50.902401
2022-08-19T03:08:51.820Z,50.902405
2022-08-19T03:09:51.788Z,50.902431
2022-08-19T03:10:51.772Z,50.902420
2022-08-19T03:11:52.816Z,50.902420
2022-08-19T03:12:51.894Z,50.902405
2022-08-19T03:13:51.792Z,50.902401
2022-08-19T03:14:51.743Z,50.902439
2022-08-19T03:15:51.733Z,50.902412
2022-08-19T03:16:51.737Z,50.902424
2022-08-19T03:17:51.899Z,50.902405
2022-08-19T03:18:51.708Z,50.902409
2022-08-19T03:19:51.701Z,50.902393
2022-08-19T03:20:51.696Z,50.902416
2022-08-19T03:21:51.688Z,50.902424
2022-08-19T03:22:51.876Z,50.902431
2022-08-19T03:23:51.665Z,50.902401
2022-08-19T03:24:51.667Z,50.902405
2022-08-19T03:26:02.705Z,50.902412
2022-08-19T03:26:52.647Z,50.902405
2022-08-19T03:27:51.638Z,50.902401
2022-08-19T03:28:57.756Z,50.902412
2022-08-19T03:29:52.622Z,50.902412
2022-08-19T03:30:51.619Z,50.902401
2022-08-19T03:31:52.774Z,50.902405
2022-08-19T03:32:53.515Z,50.902401
2022-08-19T03:33:52.623Z,50.902390
2022-08-19T03:34:51.610Z,50.902412
2022-08-19T03:35:51.581Z,50.902409
2022-08-19T03:36:51.576Z,50.902412
2022-08-19T03:37:51.571Z,50.902409
2022-08-19T03:38:51.594Z,50.902420
2022-08-19T03:39:52.574Z,50.902420
2022-08-19T03:40:51.552Z,50.902401
2022-08-19T03:42:32.423Z,50.902405
2022-08-19T03:42:52.562Z,50.902428
2022-08-19T03:43:51.541Z,50.902378
2022-08-19T03:44:51.550Z,50.902378
2022-08-19T03:45:51.509Z,50.902386
2022-08-19T03:46:51.505Z,50.902416
2022-08-19T03:47:51.523Z,50.902424
2022-08-19T03:48:51.486Z,50.902443
2022-08-19T03:49:51.481Z,50.902374
2022-08-19T03:50:51.481Z,50.902390
2022-08-19T03:51:51.466Z,50.902405
2022-08-19T03:52:51.681Z,50.902401
2022-08-19T03:53:51.452Z,50.902386
2022-08-19T03:54:51.439Z,50.902382
2022-08-19T03:55:51.447Z,50.902428
2022-08-19T03:56:51.421Z,50.902424
2022-08-19T03:57:51.476Z,50.902435
2022-08-19T03:58:51.420Z,50.902435
2022-08-19T03:59:51.407Z,50.902428
2022-08-19T04:00:51.422Z,50.902431
2022-08-19T04:01:51.392Z,50.902435
2022-08-19T04:02:58.186Z,50.902424
2022-08-19T04:03:52.393Z,50.902412
2022-08-19T04:04:51.366Z,50.902431
2022-08-19T04:05:51.364Z,50.902458
2022-08-19T04:06:51.351Z,50.902420
2022-08-19T04:07:51.344Z,50.902416
2022-08-19T04:08:51.362Z,50.902412
2022-08-19T04:09:51.328Z,50.902431
2022-08-19T04:10:51.322Z,50.902420
2022-08-19T04:11:51.310Z,50.902420
2022-08-19T04:12:51.423Z,50.902435
2022-08-19T04:13:51.319Z,50.902412
2022-08-19T04:14:51.288Z,50.902405
2022-08-19T04:15:51.292Z,50.902431
2022-08-19T04:16:51.269Z,50.902390
2022-08-19T04:17:51.265Z,50.902340
2022-08-19T04:18:51.287Z,50.902401
2022-08-19T04:19:51.246Z,50.902397
2022-08-19T04:20:51.245Z,50.902386
2022-08-19T04:21:51.235Z,50.902412
2022-08-19T04:22:51.241Z,50.902382
2022-08-19T04:23:51.255Z,50.902370
2022-08-19T04:24:51.206Z,50.902359
2022-08-19T04:25:51.203Z,50.902367
2022-08-19T04:26:51.203Z,50.902367
2022-08-19T04:27:51.214Z,50.902355
2022-08-19T04:28:51.207Z,50.902367
2022-08-19T04:29:51.174Z,50.902390
2022-08-19T04:30:51.184Z,50.902348
2022-08-19T04:31:51.155Z,50.902420
2022-08-19T04:32:51.153Z,50.902367
2022-08-19T04:33:51.165Z,50.902351
2022-08-19T04:35:02.129Z,50.902378
2022-08-19T04:35:52.132Z,50.902344
2022-08-19T04:36:51.118Z,50.902325
2022-08-19T04:37:51.129Z,50.902176
2022-08-19T04:38:51.130Z,50.902264
2022-08-19T04:39:51.130Z,50.902401
2022-08-19T04:40:51.088Z,50.902348
2022-08-19T04:41:51.075Z,50.902378
2022-08-19T04:42:51.064Z,50.902374
2022-08-19T04:43:51.085Z,50.902390
2022-08-19T04:44:51.047Z,50.902359
2022-08-19T04:45:51.056Z,50.902374
2022-08-19T04:46:52.236Z,50.902378
2022-08-19T04:47:58.634Z,50.902390
2022-08-19T04:48:52.041Z,50.902401
2022-08-19T04:49:51.008Z,50.902382
2022-08-19T04:50:51.001Z,50.902397
2022-08-19T04:51:50.994Z,50.902397
2022-08-19T04:52:50.985Z,50.902401
2022-08-19T04:53:51.008Z,50.902397
2022-08-19T04:54:50.971Z,50.902348
2022-08-19T04:55:50.978Z,50.902355
2022-08-19T04:56:50.949Z,50.902374
2022-08-19T04:57:50.968Z,50.902405
2022-08-19T04:58:50.973Z,50.902386
2022-08-19T04:59:50.934Z,50.902367
2022-08-19T05:00:50.980Z,50.902370
2022-08-19T05:01:50.911Z,50.902317
2022-08-19T05:02:50.910Z,50.902348
2022-08-19T05:03:50.929Z,50.902359
2022-08-19T05:04:50.889Z,50.902447
2022-08-19T05:05:50.887Z,50.902412
2022-08-19T05:06:50.875Z,50.902405
2022-08-19T05:07:50.900Z,50.902378
2022-08-19T05:08:50.922Z,50.902359
2022-08-19T05:09:58.025Z,50.902370
2022-08-19T05:10:51.841Z,50.902382
2022-08-19T05:11:50.834Z,50.902386
2022-08-19T05:12:50.830Z,50.902405
2022-08-19T05:13:50.847Z,50.902405
2022-08-19T05:14:50.819Z,50.902405
2022-08-19T05:15:50.808Z,50.902386
2022-08-19T05:16:58.898Z,50.902386
2022-08-19T05:17:51.793Z,50.902382
2022-08-19T05:18:50.817Z,50.902409
2022-08-19T05:19:50.773Z,50.902393
2022-08-19T05:20:50.770Z,50.902393
2022-08-19T05:21:50.765Z,50.902393
2022-08-19T05:22:50.870Z,50.902435
2022-08-19T05:23:50.776Z,50.902397
2022-08-19T05:25:11.224Z,50.902393
2022-08-19T05:25:52.824Z,50.902378
2022-08-19T05:26:50.716Z,50.902378
2022-08-19T05:27:50.736Z,50.902363
2022-08-19T05:28:54.529Z,50.902351
2022-08-19T05:29:51.698Z,50.902367
2022-08-19T05:30:50.692Z,50.902363
2022-08-19T05:31:50.676Z,50.902359
2022-08-19T05:32:50.667Z,50.902348
2022-08-19T05:33:50.689Z,50.902351
2022-08-19T05:34:50.653Z,50.902378
2022-08-19T05:35:50.653Z,50.902390
2022-08-19T05:36:50.642Z,50.902382
2022-08-19T05:37:50.630Z,50.902355
2022-08-19T05:38:51.060Z,50.902355
2022-08-19T05:39:51.646Z,50.902382
2022-08-19T05:40:51.618Z,50.902386
2022-08-19T05:41:50.603Z,50.902382
2022-08-19T05:42:50.617Z,50.902363
2022-08-19T05:43:50.635Z,50.902382
2022-08-19T05:44:50.589Z,50.902378
2022-08-19T05:45:50.578Z,50.902405
2022-08-19T05:46:51.562Z,50.902393
2022-08-19T05:47:50.559Z,50.902374
2022-08-19T05:48:50.594Z,50.902393
2022-08-19T05:49:50.541Z,50.902359
2022-08-19T05:50:50.579Z,50.902386
2022-08-19T05:51:50.532Z,50.902390
2022-08-19T05:52:50.817Z,50.902435
2022-08-19T05:53:50.535Z,50.902424
2022-08-19T05:54:51.336Z,50.902393
2022-08-19T05:55:50.496Z,50.902405
2022-08-19T05:56:50.481Z,50.902405
2022-08-19T05:57:50.483Z,50.902409
2022-08-19T05:58:50.516Z,50.902416
2022-08-19T05:59:52.697Z,50.902397
2022-08-19T06:00:50.466Z,50.902409
2022-08-19T06:01:50.447Z,50.902412
2022-08-19T06:02:50.532Z,50.902424
2022-08-19T06:03:50.458Z,50.902405
2022-08-19T06:04:50.424Z,50.902401
2022-08-19T06:05:51.897Z,50.902397
2022-08-19T06:06:50.410Z,50.902412
2022-08-19T06:07:50.518Z,50.902386
2022-08-19T06:08:50.420Z,50.902409
2022-08-19T06:09:59.121Z,50.902409
2022-08-19T06:10:51.378Z,50.902355
2022-08-19T06:11:52.953Z,50.902382
2022-08-19T06:12:52.366Z,50.902401
2022-08-19T06:13:50.385Z,50.902397
2022-08-19T06:15:01.188Z,50.902405
2022-08-19T06:15:51.366Z,50.902405
2022-08-19T06:16:50.333Z,50.902409
2022-08-19T06:17:50.433Z,50.902416
2022-08-19T06:18:50.369Z,50.902409
2022-08-19T06:19:50.324Z,50.902401
2022-08-19T06:20:55.973Z,50.902390
2022-08-19T06:21:52.303Z,50.902393
2022-08-19T06:22:50.298Z,50.902431
2022-08-19T06:23:50.318Z,50.902409
2022-08-19T06:24:50.288Z,50.902409
2022-08-19T06:25:50.280Z,50.902409
2022-08-19T06:26:50.314Z,50.902397
2022-08-19T06:28:14.064Z,50.902390
2022-08-19T06:28:52.285Z,50.902397
2022-08-19T06:29:50.242Z,50.902435
2022-08-19T06:30:50.242Z,50.902424
2022-08-19T06:31:50.238Z,50.902431
2022-08-19T06:32:50.217Z,50.902420
2022-08-19T06:33:50.307Z,50.902397
2022-08-19T06:34:50.206Z,50.902412
2022-08-19T06:35:50.209Z,50.902397
2022-08-19T06:36:50.190Z,50.902386
2022-08-19T06:37:50.181Z,50.902416
2022-08-19T06:38:50.186Z,50.902390
2022-08-19T06:39:50.236Z,50.902386
2022-08-19T06:40:50.177Z,50.902424
2022-08-19T06:41:52.524Z,50.902420
2022-08-19T06:42:54.732Z,50.902412
2022-08-19T06:43:50.133Z,50.902416
2022-08-19T06:44:50.149Z,50.902420
2022-08-19T06:45:50.115Z,50.902409
2022-08-19T06:46:54.641Z,50.902420
2022-08-19T06:47:51.102Z,50.902435
2022-08-19T06:48:50.111Z,50.902401
2022-08-19T06:49:50.108Z,50.902412
2022-08-19T06:50:50.096Z,50.902412
2022-08-19T06:51:50.068Z,50.902409
2022-08-19T06:52:50.113Z,50.902386
2022-08-19T06:54:56.597Z,50.902401
2022-08-19T06:55:51.063Z,50.902409
2022-08-19T06:56:50.049Z,50.902409
2022-08-19T06:57:50.040Z,50.902409
2022-08-19T06:58:50.054Z,50.902405
2022-08-19T06:59:50.013Z,50.902412
2022-08-19T07:00:50.042Z,50.902454
2022-08-19T07:01:49.994Z,50.902420
2022-08-19T07:02:57.249Z,50.902401
2022-08-19T07:03:51.002Z,50.902401
2022-08-19T07:04:52.760Z,50.902370
2022-08-19T07:05:49.971Z,50.902367
2022-08-19T07:06:55.193Z,50.902401
2022-08-19T07:07:51.173Z,50.902370
2022-08-19T07:08:49.962Z,50.902367
2022-08-19T07:09:51.816Z,50.902367
2022-08-19T07:10:50.921Z,50.902344
2022-08-19T07:11:49.916Z,50.902351
2022-08-19T07:12:49.972Z,50.902336
2022-08-19T07:13:49.904Z,50.902351
2022-08-19T07:14:49.918Z,50.902359
2022-08-19T07:15:49.897Z,50.902298
2022-08-19T07:16:49.881Z,50.902321
2022-08-19T07:17:52.615Z,50.902306
2022-08-19T07:18:49.846Z,50.902367
2022-08-19T07:19:50.915Z,50.902424
2022-08-19T07:20:49.843Z,50.902393
2022-08-19T07:21:49.843Z,50.902431
2022-08-19T07:22:49.825Z,50.902393
2022-08-19T07:23:49.820Z,50.902382
2022-08-19T07:24:51.297Z,50.902409
2022-08-19T07:25:52.914Z,50.902420
2022-08-19T07:26:51.591Z,50.902431
2022-08-19T07:27:54.312Z,50.902473
2022-08-19T07:28:52.830Z,50.902431
2022-08-19T07:29:55.858Z,50.902390
2022-08-19T07:30:50.762Z,50.902390
2022-08-19T07:31:49.757Z,50.902405
2022-08-19T07:32:49.742Z,50.902393
2022-08-19T07:33:49.782Z,50.902378
2022-08-19T07:34:49.760Z,50.902363
2022-08-19T07:35:49.727Z,50.902370
2022-08-19T07:36:49.717Z,50.902424
2022-08-19T07:37:49.778Z,50.902409
2022-08-19T07:38:49.713Z,50.902420
2022-08-19T07:39:49.761Z,50.902405
2022-08-19T07:40:49.683Z,50.902420
2022-08-19T07:41:49.675Z,50.902401
2022-08-19T07:42:49.671Z,50.902397
2022-08-19T07:43:49.662Z,50.902477
2022-08-19T07:44:50.723Z,50.902420
2022-08-19T07:45:49.691Z,50.902397
2022-08-19T07:47:51.316Z,50.902489
2022-08-19T07:47:58.424Z,50.902405
2022-08-19T07:48:50.625Z,50.902470
2022-08-19T07:49:49.640Z,50.902439
2022-08-19T07:50:49.617Z,50.902390
2022-08-19T07:51:49.592Z,50.902370
2022-08-19T07:52:49.593Z,50.902378
2022-08-19T07:53:49.615Z,50.902405
2022-08-19T07:54:49.579Z,50.902424
2022-08-19T07:55:49.572Z,50.902420
2022-08-19T07:56:49.573Z,50.902451
2022-08-19T07:57:49.562Z,50.902454
2022-08-19T07:58:49.636Z,50.902374
2022-08-19T07:59:49.539Z,50.902412
2022-08-19T08:00:49.534Z,50.902409
2022-08-19T08:01:49.548Z,50.902355
2022-08-19T08:02:49.625Z,50.902363
2022-08-19T08:03:49.533Z,50.902370
2022-08-19T08:04:49.501Z,50.902458
2022-08-19T08:05:49.496Z,50.902443
2022-08-19T08:06:49.493Z,50.902424
2022-08-19T08:07:49.478Z,50.902443
2022-08-19T08:08:49.496Z,50.902424
2022-08-19T08:09:50.069Z,50.902431
2022-08-19T08:10:53.101Z,50.902405
2022-08-19T08:11:50.444Z,50.902393
2022-08-19T08:13:05.859Z,50.902416
2022-08-19T08:14:01.247Z,50.902431
2022-08-19T08:14:50.428Z,50.902458
2022-08-19T08:15:50.425Z,50.902386
2022-08-19T08:16:49.409Z,50.902416
2022-08-19T08:17:51.572Z,50.902454
2022-08-19T08:18:50.547Z,50.902481
2022-08-19T08:19:49.421Z,50.902462
2022-08-19T08:20:49.378Z,50.902435
2022-08-19T08:21:49.378Z,50.902431
2022-08-19T08:22:49.388Z,50.902458
2022-08-19T08:23:51.082Z,50.902397
2022-08-19T08:24:49.365Z,50.902466
2022-08-19T08:25:49.463Z,50.902439
2022-08-19T08:26:52.220Z,50.902420
2022-08-19T08:27:50.395Z,50.902412
2022-08-19T08:28:49.456Z,50.902416
2022-08-19T08:29:49.322Z,50.902416
2022-08-19T08:30:49.360Z,50.902405
2022-08-19T08:31:49.292Z,50.902416
2022-08-19T08:32:50.285Z,50.902401
2022-08-19T08:33:49.280Z,50.902390
2022-08-19T08:34:50.071Z,50.902405
2022-08-19T08:35:49.258Z,50.902393
2022-08-19T08:36:49.246Z,50.902431
2022-08-19T08:37:51.113Z,50.902416
2022-08-19T08:38:49.291Z,50.902409
2022-08-19T08:39:49.276Z,50.902409
2022-08-19T08:40:49.212Z,50.902405
2022-08-19T08:41:49.204Z,50.902412
2022-08-19T08:42:49.230Z,50.902420
2022-08-19T08:43:49.187Z,50.902397
2022-08-19T08:44:49.236Z,50.902386
2022-08-19T08:45:53.571Z,50.902390
2022-08-19T08:46:49.166Z,50.902416
2022-08-19T08:47:49.182Z,50.902416
2022-08-19T08:48:52.585Z,50.902409
2022-08-19T08:49:51.285Z,50.902412
2022-08-19T08:50:49.140Z,50.902397
2022-08-19T08:51:59.498Z,50.902374
2022-08-19T08:52:50.146Z,50.902397
2022-08-19T08:53:49.131Z,50.902420
2022-08-19T08:54:55.439Z,50.902428
2022-08-19T08:55:50.102Z,50.902420
2022-08-19T08:56:49.136Z,50.902466
2022-08-19T08:57:49.090Z,50.902412
2022-08-19T08:58:53.903Z,50.902405
2022-08-19T08:59:51.106Z,50.902416
2022-08-19T09:00:49.158Z,50.902428
2022-08-19T09:01:49.125Z,50.902401
2022-08-19T09:02:50.983Z,50.902382
2022-08-19T09:03:49.159Z,50.902412
2022-08-19T09:04:49.480Z,50.902416
2022-08-19T09:05:49.040Z,50.902401
2022-08-19T09:06:49.042Z,50.902390
2022-08-19T09:07:49.138Z,50.902344
2022-08-19T09:08:49.018Z,50.902390
2022-08-19T09:09:49.049Z,50.902359
2022-08-19T09:10:49.019Z,50.902370
2022-08-19T09:11:49.996Z,50.902409
2022-08-19T09:12:48.994Z,50.902405
2022-08-19T09:13:49.000Z,50.902351
2022-08-19T09:14:51.044Z,50.902393
2022-08-19T09:15:50.001Z,50.902431
2022-08-19T09:16:48.956Z,50.902393
2022-08-19T09:17:51.681Z,50.902382
2022-08-19T09:18:48.945Z,50.902390
2022-08-19T09:19:48.977Z,50.902412
2022-08-19T09:20:48.903Z,50.902397
2022-08-19T09:21:48.920Z,50.902451
2022-08-19T09:22:48.893Z,50.902454
2022-08-19T09:23:51.034Z,50.902409
2022-08-19T09:24:48.905Z,50.902401
2022-08-19T09:25:48.865Z,50.902363
2022-08-19T09:26:52.643Z,50.902420
2022-08-19T09:27:48.942Z,50.902401
2022-08-19T09:28:49.020Z,50.902405
2022-08-19T09:29:48.828Z,50.902412
2022-08-19T09:30:48.860Z,50.902428
2022-08-19T09:31:48.813Z,50.902397
2022-08-19T09:32:52.933Z,50.902378
2022-08-19T09:33:48.803Z,50.902405
2022-08-19T09:34:51.295Z,50.902386
2022-08-19T09:35:53.581Z,50.902374
2022-08-19T09:36:48.779Z,50.902378
2022-08-19T09:37:48.772Z,50.902382
2022-08-19T09:38:48.778Z,50.902382
2022-08-19T09:39:48.807Z,50.902370
2022-08-19T09:40:48.787Z,50.902370
2022-08-19T09:41:49.172Z,50.902412
2022-08-19T09:42:50.296Z,50.902401
2022-08-19T09:43:48.729Z,50.902397
2022-08-19T09:44:48.740Z,50.902405
2022-08-19T09:45:48.705Z,50.902386
2022-08-19T09:46:48.700Z,50.902405
2022-08-19T09:47:48.695Z,50.902390
2022-08-19T09:48:48.687Z,50.902409
2022-08-19T09:49:48.712Z,50.902382
2022-08-19T09:50:51.686Z,50.902328
2022-08-19T09:51:51.321Z,50.902344
2022-08-19T09:52:54.177Z,50.902359
2022-08-19T09:53:49.645Z,50.902359
2022-08-19T09:54:52.032Z,50.902367
2022-08-19T09:55:48.626Z,50.902370
2022-08-19T09:56:48.617Z,50.902359
2022-08-19T09:57:48.621Z,50.902340
2022-08-19T09:58:48.612Z,50.902378
2022-08-19T09:59:48.630Z,50.902386
2022-08-19T10:00:51.687Z,50.902382
2022-08-19T10:01:48.626Z,50.902386
2022-08-19T10:02:48.583Z,50.902382
2022-08-19T10:03:48.616Z,50.902390
2022-08-19T10:04:48.563Z,50.902397
2022-08-19T10:05:48.890Z,50.902390
2022-08-19T10:06:48.545Z,50.902393
2022-08-19T10:07:49.576Z,50.902393
2022-08-19T10:08:50.272Z,50.902378
2022-08-19T10:09:48.520Z,50.902382
2022-08-19T10:10:48.543Z,50.902378
2022-08-19T10:11:54.490Z,50.902351
2022-08-19T10:12:50.516Z,50.902363
2022-08-19T10:13:48.492Z,50.902351
2022-08-19T10:14:48.485Z,50.902351
2022-08-19T10:15:49.367Z,50.902378
2022-08-19T10:16:48.468Z,50.902367
2022-08-19T10:17:48.468Z,50.902348
2022-08-19T10:18:49.681Z,50.902359
2022-08-19T10:19:53.835Z,50.902321
2022-08-19T10:20:51.559Z,50.902355
2022-08-19T10:21:48.437Z,50.902390
2022-08-19T10:22:48.418Z,50.902378
2022-08-19T10:23:48.412Z,50.902351
2022-08-19T10:24:48.417Z,50.902306
2022-08-19T10:25:48.429Z,50.902313
2022-08-19T10:26:48.391Z,50.902367
2022-08-19T10:27:51.465Z,50.902348
2022-08-19T10:28:49.374Z,50.902351
2022-08-19T10:29:48.373Z,50.902355
2022-08-19T10:30:48.437Z,50.902348
2022-08-19T10:32:01.417Z,50.902348
2022-08-19T10:32:49.346Z,50.902390
2022-08-19T10:33:54.197Z,50.902363
2022-08-19T10:34:49.332Z,50.902321
2022-08-19T10:35:57.129Z,50.902317
2022-08-19T10:36:52.286Z,50.902355
2022-08-19T10:37:56.930Z,50.902355
2022-08-19T10:38:52.392Z,50.902317
2022-08-19T10:39:49.325Z,50.902317
2022-08-19T10:40:48.327Z,50.902325
2022-08-19T10:41:48.278Z,50.902321
2022-08-19T10:42:48.283Z,50.902290
2022-08-19T10:43:48.267Z,50.902294
2022-08-19T10:44:48.276Z,50.902309
2022-08-19T10:45:52.521Z,50.902351
2022-08-19T10:46:48.985Z,50.902317
2022-08-19T10:47:49.249Z,50.902328
2022-08-19T10:48:48.232Z,50.902382
2022-08-19T10:49:48.218Z,50.902359
2022-08-19T10:50:48.245Z,50.902317
2022-08-19T10:51:48.793Z,50.902214
2022-08-19T10:52:50.012Z,50.902290
2022-08-19T10:53:48.190Z,50.902271
2022-08-19T10:54:48.180Z,50.902332
2022-08-19T10:55:48.198Z,50.902306
2022-08-19T10:56:48.157Z,50.902328
2022-08-19T10:58:04.589Z,50.902370
2022-08-19T10:58:50.148Z,50.902355
2022-08-19T10:59:48.155Z,50.902321
2022-08-19T11:00:48.191Z,50.902355
2022-08-19T11:01:48.130Z,50.902367
2022-08-19T11:02:48.121Z,50.902378
2022-08-19T11:03:48.107Z,50.902351
2022-08-19T11:04:48.104Z,50.902378
2022-08-19T11:05:48.127Z,50.902271
2022-08-19T11:06:48.088Z,50.902340
2022-08-19T11:07:48.089Z,50.902298
2022-08-19T11:08:48.073Z,50.902325
2022-08-19T11:09:48.060Z,50.902313
2022-08-19T11:10:50.419Z,50.902317
2022-08-19T11:11:48.064Z,50.902328
2022-08-19T11:12:48.065Z,50.902344
2022-08-19T11:13:48.039Z,50.902306
2022-08-19T11:14:48.031Z,50.902355
2022-08-19T11:15:48.049Z,50.902344
2022-08-19T11:16:48.019Z,50.902367
2022-08-19T11:17:48.040Z,50.902367
2022-08-19T11:18:47.994Z,50.902351
2022-08-19T11:19:47.995Z,50.902359
2022-08-19T11:20:48.039Z,50.902374
2022-08-19T11:21:47.979Z,50.902397
2022-08-19T11:22:47.960Z,50.902393
2022-08-19T11:23:47.956Z,50.902359
2022-08-19T11:24:47.947Z,50.902363
2022-08-19T11:25:47.969Z,50.902374